Time;durP1;ratioP1;P1;durP2;ratioP2;P2;SDS_P1;SDS_P2;PMS_P1;PMS_P2;Temp;Humidity;BMP_temperature;BMP_pressure;BME280_temperature;BME280_humidity;BME280_pressure;Samples;Min_cycle;Max_cycle;Signal;HPM_P1;HPM_P2
2022/12/31 00:01:14;;;;;;;2.03;1.07;;;;;;;14.80;69.25;97241.31;5051721;28;20424;-71
2022/12/31 00:03:42;;;;;;;1.13;0.97;;;;;;;14.83;69.19;97240.94;5057486;28;20195;-71
2022/12/31 00:06:19;;;;;;;1.87;1.00;;;;;;;14.78;69.26;97245.94;5052548;28;20421;-72
2022/12/31 00:08:45;;;;;;;2.33;0.90;;;;;;;14.84;69.07;97253.16;5051275;28;20528;-72
2022/12/31 00:11:10;;;;;;;1.57;0.90;;;;;;;14.81;69.09;97242.94;5056342;28;21016;-70
2022/12/31 00:13:36;;;;;;;1.10;0.90;;;;;;;14.83;69.19;97248.03;5051268;28;20560;-72
2022/12/31 00:16:14;;;;;;;1.27;0.90;;;;;;;14.87;68.86;97250.13;5051694;28;20190;-72
2022/12/31 00:18:43;;;;;;;1.90;1.80;;;;;;;14.86;68.82;97251.16;5052031;28;20298;-71
2022/12/31 00:21:09;;;;;;;2.00;1.30;;;;;;;14.77;69.08;97251.41;5051118;28;20449;-72
2022/12/31 00:23:35;;;;;;;1.37;1.10;;;;;;;14.79;69.30;97259.97;5051046;28;20612;-71
2022/12/31 00:26:13;;;;;;;2.40;1.10;;;;;;;14.74;69.51;97265.78;5050695;28;20286;-72
2022/12/31 00:28:38;;;;;;;0.90;0.80;;;;;;;14.79;69.25;97263.41;5049077;28;20510;-73
2022/12/31 00:31:08;;;;;;;2.17;0.90;;;;;;;14.94;68.78;97270.53;5050911;28;20438;-73
2022/12/31 00:33:34;;;;;;;1.90;1.10;;;;;;;14.96;68.49;97277.28;5043629;28;20280;-72
2022/12/31 00:36:18;;;;;;;0.90;0.70;;;;;;;15.02;68.44;97286.28;5051372;28;20921;-72
2022/12/31 00:38:46;;;;;;;4.03;1.00;;;;;;;14.97;68.46;97283.38;5044646;28;20260;-73
2022/12/31 00:41:12;;;;;;;2.80;0.80;;;;;;;15.03;68.35;97283.50;5054613;28;20508;-72
2022/12/31 00:43:37;;;;;;;4.60;0.73;;;;;;;15.05;68.42;97288.59;5051127;28;20420;-73
2022/12/31 00:46:04;;;;;;;1.20;0.90;;;;;;;15.12;68.12;97286.06;5051169;28;20830;-71
2022/12/31 00:48:30;;;;;;;1.30;0.80;;;;;;;15.13;68.00;97288.50;5050570;28;20221;-73
2022/12/31 00:50:55;;;;;;;1.10;0.80;;;;;;;15.16;67.93;97287.34;5050563;28;20414;-72
2022/12/31 00:53:21;;;;;;;2.27;1.10;;;;;;;15.20;67.63;97300.00;5050245;28;20203;-72
2022/12/31 00:55:47;;;;;;;2.80;0.83;;;;;;;15.16;67.88;97293.44;5050989;28;20252;-72
2022/12/31 00:58:13;;;;;;;1.00;0.83;;;;;;;15.22;67.60;97301.63;5053954;28;20449;-71
2022/12/31 01:00:38;;;;;;;2.93;1.10;;;;;;;15.24;67.44;97291.72;5050758;28;20206;-73
2022/12/31 01:03:04;;;;;;;1.80;0.80;;;;;;;15.33;67.21;97311.75;5049643;28;20194;-73
2022/12/31 01:05:31;;;;;;;1.20;0.83;;;;;;;15.40;66.89;97302.09;5049343;28;20610;-71
2022/12/31 01:07:57;;;;;;;1.90;0.90;;;;;;;15.39;66.95;97300.47;5049200;28;20194;-71
2022/12/31 01:13:06;;;;;;;1.10;0.87;;;;;;;15.40;67.11;97309.22;5050278;28;20206;-71
2022/12/31 01:15:34;;;;;;;1.73;0.90;;;;;;;15.59;66.31;97307.88;5050479;28;20461;-71
2022/12/31 01:18:00;;;;;;;1.53;0.70;;;;;;;15.61;66.17;97306.69;5050122;28;20285;-70
2022/12/31 01:20:25;;;;;;;1.27;0.90;;;;;;;15.58;66.37;97322.88;5050742;28;20469;-71
2022/12/31 01:22:50;;;;;;;1.10;0.70;;;;;;;15.62;66.10;97339.22;5050463;28;20183;-70
2022/12/31 01:25:16;;;;;;;1.30;0.90;;;;;;;15.52;66.07;97340.28;5050223;28;20732;-72
2022/12/31 01:27:41;;;;;;;1.93;0.93;;;;;;;15.70;65.72;97331.19;5050331;28;20670;-72
2022/12/31 01:30:07;;;;;;;1.63;1.00;;;;;;;15.68;65.53;97342.94;5050083;28;20233;-72
2022/12/31 01:32:33;;;;;;;2.13;0.90;;;;;;;15.81;65.21;97338.66;5050581;28;20194;-71
2022/12/31 01:34:58;;;;;;;1.67;0.70;;;;;;;15.76;65.20;97359.50;5050074;28;20520;-72
2022/12/31 01:37:24;;;;;;;1.40;0.70;;;;;;;15.73;65.29;97364.34;5049717;28;20235;-70
2022/12/31 01:39:49;;;;;;;0.90;0.70;;;;;;;15.88;64.47;97359.13;5050406;28;20278;-70
2022/12/31 01:42:15;;;;;;;1.90;0.83;;;;;;;15.76;64.80;97362.16;5046151;28;20613;-70
2022/12/31 01:44:40;;;;;;;1.50;0.90;;;;;;;15.69;64.75;97355.97;5050061;28;20181;-71
2022/12/31 01:47:13;;;;;;;1.10;0.80;;;;;;;15.86;64.30;97350.53;5049729;28;20195;-71
2022/12/31 01:49:48;;;;;;;1.50;0.70;;;;;;;15.96;64.03;97357.19;5044804;28;20183;-71
2022/12/31 01:52:33;;;;;;;1.93;0.77;;;;;;;15.95;63.91;97354.72;5048337;28;20469;-72
2022/12/31 01:55:03;;;;;;;1.37;0.80;;;;;;;15.89;63.87;97358.09;5048940;28;20465;-71
2022/12/31 01:57:29;;;;;;;1.10;1.00;;;;;;;15.95;63.54;97360.00;5049463;28;20472;-71
2022/12/31 01:59:55;;;;;;;1.00;0.90;;;;;;;15.96;63.38;97370.41;5050100;28;20406;-72
2022/12/31 02:02:20;;;;;;;1.10;0.90;;;;;;;15.88;63.35;97359.94;5048528;28;20935;-72
2022/12/31 02:04:47;;;;;;;0.90;0.70;;;;;;;15.90;63.23;97368.50;5052432;28;20187;-71
2022/12/31 02:07:13;;;;;;;1.50;0.80;;;;;;;15.92;62.80;97353.28;5052473;28;20195;-71
2022/12/31 02:09:40;;;;;;;1.60;0.80;;;;;;;16.05;62.41;97349.97;5055698;28;20417;-71
2022/12/31 02:12:06;;;;;;;1.90;0.70;;;;;;;16.04;62.42;97372.13;5073071;28;20653;-71
2022/12/31 02:14:52;;;;;;;4.13;0.80;;;;;;;16.03;62.17;97372.31;5068941;28;20441;-71
2022/12/31 02:17:43;;;;;;;1.20;0.70;;;;;;;15.99;62.27;97369.22;5051223;28;21049;-71
2022/12/31 02:20:15;;;;;;;1.00;0.70;;;;;;;15.99;62.10;97371.88;5051559;28;20440;-71
2022/12/31 02:23:19;;;;;;;2.27;0.77;;;;;;;15.95;61.84;97376.69;5053470;28;20424;-70
2022/12/31 02:26:03;;;;;;;1.97;0.80;;;;;;;15.96;61.73;97369.59;5046258;28;20516;-71
2022/12/31 02:28:50;;;;;;;3.00;0.97;;;;;;;16.09;61.32;97375.06;5052585;28;20434;-71
2022/12/31 02:31:55;;;;;;;1.27;0.80;;;;;;;16.01;61.47;97374.31;5053311;28;20433;-71
2022/12/31 02:34:40;;;;;;;1.27;0.80;;;;;;;16.13;61.09;97367.56;5051781;28;20833;-71
2022/12/31 02:37:09;;;;;;;1.30;0.77;;;;;;;16.17;60.98;97368.00;5052891;28;20425;-71
2022/12/31 02:39:35;;;;;;;1.77;0.90;;;;;;;16.07;61.09;97377.06;5051989;28;20849;-71
2022/12/31 02:42:02;;;;;;;1.93;0.90;;;;;;;16.11;60.79;97378.34;5055760;28;20516;-71
2022/12/31 02:44:33;;;;;;;2.10;1.00;;;;;;;16.15;60.58;97380.59;5053653;28;20840;-71
2022/12/31 02:47:07;;;;;;;1.30;0.77;;;;;;;16.13;60.77;97381.59;5052695;28;20414;-71
2022/12/31 02:49:58;;;;;;;2.80;1.07;;;;;;;16.20;60.69;97386.16;5053351;28;20420;-71
2022/12/31 02:52:27;;;;;;;1.93;1.00;;;;;;;16.27;60.52;97364.09;5051383;28;20807;-71
2022/12/31 02:55:04;;;;;;;1.30;1.00;;;;;;;16.26;60.45;97378.31;5053110;28;20461;-71
2022/12/31 02:57:44;;;;;;;2.20;0.70;;;;;;;16.21;60.23;97374.59;5052291;28;20532;-72
2022/12/31 03:02:57;;;;;;;1.33;0.80;;;;;;;16.23;60.12;97372.59;5047373;28;21101;-71
2022/12/31 03:05:27;;;;;;;2.00;0.97;;;;;;;16.26;59.89;97377.47;5050368;28;20491;-70
2022/12/31 03:07:52;;;;;;;1.57;1.00;;;;;;;16.35;59.88;97373.75;5046408;28;20441;-71
2022/12/31 03:10:18;;;;;;;1.30;0.80;;;;;;;16.48;59.43;97377.56;5058251;28;20789;-71
2022/12/31 03:12:47;;;;;;;1.00;0.70;;;;;;;16.36;59.52;97372.75;5053042;28;20175;-72
2022/12/31 03:15:25;;;;;;;1.40;1.00;;;;;;;16.51;59.45;97363.94;5052284;28;20215;-72
2022/12/31 03:17:50;;;;;;;1.00;0.80;;;;;;;16.45;59.65;97354.91;5052791;28;20524;-72
2022/12/31 03:23:02;;;;;;;1.27;0.80;;;;;;;16.42;59.88;97374.63;5052545;28;20186;-71
2022/12/31 03:25:39;;;;;;;1.87;0.87;;;;;;;16.63;59.19;97369.56;5052229;28;20433;-72
2022/12/31 03:28:16;;;;;;;1.07;0.77;;;;;;;16.62;59.46;97371.41;5052157;28;20444;-71
2022/12/31 03:30:45;;;;;;;1.53;0.70;;;;;;;16.65;59.45;97386.88;5052545;28;20421;-71
2022/12/31 03:33:10;;;;;;;1.90;0.90;;;;;;;16.55;59.67;97389.03;5051768;28;20855;-70
2022/12/31 03:35:37;;;;;;;1.23;0.90;;;;;;;16.69;59.46;97403.25;5052537;28;20513;-72
2022/12/31 03:38:02;;;;;;;0.90;0.73;;;;;;;16.63;59.64;97383.63;5051961;28;20241;-71
2022/12/31 03:40:30;;;;;;;0.90;0.70;;;;;;;16.64;59.98;97379.97;5055042;28;20454;-71
2022/12/31 03:42:55;;;;;;;1.23;0.90;;;;;;;16.70;59.93;97388.97;5056254;28;20183;-72
2022/12/31 03:45:21;;;;;;;1.57;0.80;;;;;;;16.65;60.03;97394.03;5051976;28;20432;-70
2022/12/31 03:47:47;;;;;;;1.10;0.87;;;;;;;16.81;59.62;97395.63;5052111;28;20265;-70
2022/12/31 03:50:15;;;;;;;1.00;0.70;;;;;;;16.88;59.56;97396.53;5051530;28;20445;-71
2022/12/31 03:52:40;;;;;;;2.90;1.40;;;;;;;16.91;59.56;97398.78;5051804;28;20194;-70
2022/12/31 03:55:07;;;;;;;1.73;0.90;;;;;;;16.88;59.77;97392.03;5051542;28;20461;-71
2022/12/31 03:57:33;;;;;;;2.90;0.80;;;;;;;16.84;59.70;97400.53;5051451;28;20249;-71
2022/12/31 03:59:58;;;;;;;1.70;0.80;;;;;;;16.86;59.71;97383.47;5052208;28;20422;-71
2022/12/31 04:02:24;;;;;;;1.20;0.60;;;;;;;16.94;59.44;97394.94;5051615;28;20605;-71
2022/12/31 04:04:49;;;;;;;2.60;0.63;;;;;;;16.73;60.05;97415.91;5051881;28;20179;-71
2022/12/31 04:07:15;;;;;;;1.10;0.90;;;;;;;17.03;59.33;97410.53;5050193;28;20171;-72
2022/12/31 04:09:40;;;;;;;2.20;0.70;;;;;;;17.02;59.29;97406.25;5050157;28;20207;-73
2022/12/31 04:12:06;;;;;;;2.13;0.90;;;;;;;16.95;59.41;97408.00;5035408;28;20198;-73
2022/12/31 04:14:31;;;;;;;1.50;0.70;;;;;;;16.81;59.95;97412.34;5053209;28;20666;-71
2022/12/31 04:16:57;;;;;;;1.30;0.60;;;;;;;16.89;59.74;97398.97;5050816;28;20194;-71
2022/12/31 04:19:22;;;;;;;1.10;0.70;;;;;;;17.10;59.27;97404.50;5052018;28;20215;-71
2022/12/31 04:21:48;;;;;;;1.67;0.77;;;;;;;17.15;59.03;97402.09;5051210;28;20183;-71
2022/12/31 04:24:13;;;;;;;1.63;0.60;;;;;;;17.31;58.59;97412.44;5050217;28;20179;-72
2022/12/31 04:26:39;;;;;;;3.83;0.80;;;;;;;17.13;58.96;97409.41;5047873;28;20187;-71
2022/12/31 04:29:04;;;;;;;2.07;0.83;;;;;;;17.18;59.03;97420.25;5059843;28;20221;-72
2022/12/31 04:31:30;;;;;;;0.90;0.70;;;;;;;17.12;59.15;97391.88;5051620;28;20198;-70
2022/12/31 04:33:55;;;;;;;2.17;0.83;;;;;;;17.12;59.14;97391.88;5050983;28;20219;-70
2022/12/31 04:36:21;;;;;;;1.30;0.67;;;;;;;17.28;58.88;97404.03;5055651;28;20179;-71
2022/12/31 04:38:46;;;;;;;0.90;0.70;;;;;;;17.24;58.87;97406.25;5059928;28;20206;-71
2022/12/31 04:41:19;;;;;;;2.27;0.83;;;;;;;17.15;59.20;97407.38;5055835;28;20190;-71
2022/12/31 04:43:48;;;;;;;2.70;0.90;;;;;;;17.13;59.25;97417.38;5051664;28;20183;-72
2022/12/31 04:46:15;;;;;;;1.00;0.80;;;;;;;17.28;59.06;97428.69;5057453;28;20464;-71
2022/12/31 04:48:41;;;;;;;0.90;0.70;;;;;;;17.29;59.01;97425.03;5043482;28;20480;-72
2022/12/31 04:51:06;;;;;;;0.80;0.60;;;;;;;17.32;58.82;97429.97;5050524;28;20421;-71
2022/12/31 04:53:32;;;;;;;1.43;0.70;;;;;;;17.13;59.23;97426.13;5054382;28;20645;-72
2022/12/31 04:55:57;;;;;;;2.03;0.70;;;;;;;17.19;59.19;97429.84;5045838;28;20266;-71
2022/12/31 04:58:23;;;;;;;0.90;0.70;;;;;;;17.27;59.01;97440.28;5049733;28;20206;-72
2022/12/31 05:00:50;;;;;;;0.80;0.60;;;;;;;17.18;59.18;97438.78;5050365;28;20191;-71
2022/12/31 05:03:16;;;;;;;15.30;1.00;;;;;;;17.26;59.19;97438.69;5049497;28;20270;-72
2022/12/31 05:05:42;;;;;;;0.90;0.60;;;;;;;17.19;59.29;97433.31;5050205;28;20426;-72
2022/12/31 05:08:11;;;;;;;0.97;0.70;;;;;;;17.08;59.63;97436.44;5057871;28;20448;-71
2022/12/31 05:10:40;;;;;;;1.33;0.90;;;;;;;17.07;59.71;97449.88;5056512;28;20174;-73
2022/12/31 05:13:06;;;;;;;1.50;0.70;;;;;;;17.04;60.07;97443.94;5053710;28;20848;-72
2022/12/31 05:15:32;;;;;;;1.20;0.80;;;;;;;17.13;59.74;97446.50;5058354;28;20462;-71
2022/12/31 05:17:57;;;;;;;0.87;0.67;;;;;;;17.07;60.01;97447.22;5048644;28;20210;-72
2022/12/31 05:20:22;;;;;;;2.03;0.60;;;;;;;17.10;59.62;97452.16;5049653;28;20725;-72
2022/12/31 05:22:48;;;;;;;1.40;0.70;;;;;;;16.92;60.34;97456.00;5049767;28;20188;-71
2022/12/31 05:25:13;;;;;;;0.90;0.70;;;;;;;16.87;60.49;97445.97;5057805;28;20214;-71
2022/12/31 05:27:39;;;;;;;0.90;0.80;;;;;;;17.17;59.55;97442.44;5049809;28;20217;-71
2022/12/31 05:30:05;;;;;;;3.60;0.90;;;;;;;17.15;59.64;97440.00;5050243;28;20179;-71
2022/12/31 05:32:31;;;;;;;1.43;0.80;;;;;;;17.18;59.42;97450.22;5052891;28;20191;-71
2022/12/31 05:34:58;;;;;;;1.10;0.70;;;;;;;16.96;60.19;97467.91;5050013;28;20556;-71
2022/12/31 05:37:24;;;;;;;1.43;0.70;;;;;;;17.07;59.91;97468.41;5050492;28;20199;-71
2022/12/31 05:39:50;;;;;;;0.87;0.70;;;;;;;17.13;59.72;97473.78;5054084;28;20422;-72
2022/12/31 05:42:15;;;;;;;3.40;0.83;;;;;;;17.12;59.70;97456.25;5057514;28;20521;-71
2022/12/31 05:44:40;;;;;;;1.73;0.70;;;;;;;17.15;59.61;97445.28;5053814;28;20229;-71
2022/12/31 05:47:06;;;;;;;1.23;0.90;;;;;;;17.14;59.67;97437.50;5053161;28;20229;-72
2022/12/31 05:49:31;;;;;;;2.40;0.83;;;;;;;17.09;59.68;97463.75;5054146;28;20191;-71
2022/12/31 05:51:57;;;;;;;0.90;0.80;;;;;;;17.19;59.42;97472.19;5054062;28;20643;-70
2022/12/31 05:54:22;;;;;;;1.33;1.03;;;;;;;17.27;58.97;97479.22;5055705;28;20255;-71
2022/12/31 05:56:48;;;;;;;2.50;0.80;;;;;;;17.22;59.31;97486.88;5059702;28;20191;-70
2022/12/31 05:59:13;;;;;;;2.03;0.80;;;;;;;17.12;59.53;97492.50;5054502;28;20207;-70
2022/12/31 06:01:38;;;;;;;2.00;0.80;;;;;;;17.12;59.63;97497.81;5063205;28;20179;-70
2022/12/31 06:04:04;;;;;;;2.60;0.70;;;;;;;17.11;59.61;97496.16;5053743;28;20872;-71
2022/12/31 06:06:30;;;;;;;0.90;0.70;;;;;;;17.07;59.92;97501.03;5054715;28;20179;-71
2022/12/31 06:08:55;;;;;;;4.13;0.90;;;;;;;17.13;59.57;97510.84;5064411;28;20273;-72
2022/12/31 06:11:21;;;;;;;1.00;0.80;;;;;;;17.07;59.90;97513.41;5048309;28;20187;-71
2022/12/31 06:13:46;;;;;;;4.10;0.80;;;;;;;17.11;59.72;97527.94;5053671;28;20575;-71
2022/12/31 06:16:12;;;;;;;1.30;0.70;;;;;;;17.11;59.97;97522.66;5053314;28;20221;-72
2022/12/31 06:18:37;;;;;;;0.90;0.70;;;;;;;17.12;59.75;97513.69;5055788;28;20199;-72
2022/12/31 06:21:03;;;;;;;2.20;1.00;;;;;;;17.14;59.95;97530.19;5057645;28;20209;-72
2022/12/31 06:23:28;;;;;;;0.93;0.83;;;;;;;17.08;60.18;97526.47;5063479;28;20532;-71
2022/12/31 06:25:54;;;;;;;0.80;0.60;;;;;;;16.99;60.60;97519.63;5055347;28;20179;-71
2022/12/31 06:28:20;;;;;;;0.90;0.70;;;;;;;17.00;60.34;97516.00;5061909;28;20261;-71
2022/12/31 06:30:45;;;;;;;1.00;0.70;;;;;;;16.91;60.55;97523.19;5059743;28;20180;-71
2022/12/31 06:33:11;;;;;;;0.80;0.60;;;;;;;16.86;60.74;97530.88;5061788;28;20198;-71
2022/12/31 06:35:36;;;;;;;1.23;0.60;;;;;;;16.93;60.63;97526.47;5063293;28;20939;-70
2022/12/31 06:38:02;;;;;;;0.90;0.70;;;;;;;17.00;60.33;97524.78;5054964;28;20223;-71
2022/12/31 06:40:27;;;;;;;1.33;0.67;;;;;;;17.01;60.12;97542.28;5053267;28;20824;-71
2022/12/31 06:42:53;;;;;;;2.40;0.80;;;;;;;16.98;60.43;97555.91;5055678;28;20182;-71
2022/12/31 06:45:19;;;;;;;0.90;0.70;;;;;;;16.99;60.27;97549.59;5044208;28;20176;-71
2022/12/31 06:47:44;;;;;;;0.90;0.70;;;;;;;17.01;60.13;97536.97;5040462;28;20196;-72
2022/12/31 06:50:10;;;;;;;0.90;0.57;;;;;;;16.92;60.38;97546.00;5045898;28;20472;-73
2022/12/31 06:52:36;;;;;;;1.47;0.90;;;;;;;16.93;60.41;97531.75;5047383;28;20218;-72
2022/12/31 06:55:02;;;;;;;2.40;0.70;;;;;;;16.93;60.36;97521.19;5054188;28;20248;-73
2022/12/31 06:57:28;;;;;;;2.43;0.80;;;;;;;16.95;60.49;97521.03;5053546;28;20468;-72
2022/12/31 06:59:54;;;;;;;2.13;0.90;;;;;;;16.90;60.46;97513.59;5052840;28;20911;-72
2022/12/31 07:02:35;;;;;;;0.90;0.63;;;;;;;16.87;60.79;97519.28;5051261;28;20464;-72
2022/12/31 07:05:25;;;;;;;1.07;0.80;;;;;;;16.92;60.60;97510.78;5052430;28;20229;-71
2022/12/31 07:08:18;;;;;;;1.20;0.70;;;;;;;16.86;60.58;97522.94;5048290;28;20812;-71
2022/12/31 07:10:49;;;;;;;1.10;0.70;;;;;;;16.94;60.40;97522.84;5053203;28;20873;-71
2022/12/31 07:13:20;;;;;;;1.70;1.17;;;;;;;16.90;60.67;97529.47;5053783;28;20417;-71
2022/12/31 07:15:48;;;;;;;2.80;0.80;;;;;;;16.92;60.49;97532.78;5053036;28;20439;-70
2022/12/31 07:18:26;;;;;;;1.97;0.77;;;;;;;16.72;61.12;97536.00;5052884;28;20487;-70
2022/12/31 07:20:52;;;;;;;1.97;0.90;;;;;;;16.86;60.80;97538.81;5050256;28;20503;-70
2022/12/31 07:23:18;;;;;;;2.50;0.80;;;;;;;16.78;60.77;97538.91;5053762;28;20821;-71
2022/12/31 07:25:51;;;;;;;3.43;0.80;;;;;;;16.78;60.53;97541.53;5050222;28;20763;-72
2022/12/31 07:28:35;;;;;;;2.30;1.20;;;;;;;16.90;60.42;97548.00;5049769;28;20212;-71
2022/12/31 07:31:26;;;;;;;2.60;0.80;;;;;;;16.89;60.38;97541.91;5048216;28;20469;-70
2022/12/31 07:33:58;;;;;;;1.00;0.90;;;;;;;16.92;60.04;97546.00;5043227;28;20457;-72
2022/12/31 07:37:00;;;;;;;1.00;0.90;;;;;;;16.88;60.07;97550.03;5053161;28;20872;-72
2022/12/31 07:39:57;;;;;;;1.43;0.80;;;;;;;16.84;60.09;97551.41;5045698;28;20659;-71
2022/12/31 07:42:39;;;;;;;4.43;0.80;;;;;;;17.02;59.65;97556.34;5054109;28;20501;-71
2022/12/31 07:45:19;;;;;;;1.10;0.70;;;;;;;17.07;59.43;97553.13;5051208;28;20414;-72
2022/12/31 07:47:45;;;;;;;1.00;0.83;;;;;;;16.99;59.30;97556.72;5051668;28;20492;-72
2022/12/31 07:50:16;;;;;;;1.10;0.80;;;;;;;17.05;59.15;97569.22;5050421;28;21110;-72
2022/12/31 07:52:41;;;;;;;3.73;0.90;;;;;;;17.10;58.89;97568.66;5050315;28;20773;-72
2022/12/31 07:55:07;;;;;;;1.30;0.80;;;;;;;17.03;59.05;97564.09;5051976;28;20461;-72
2022/12/31 07:57:41;;;;;;;1.27;0.70;;;;;;;17.02;58.79;97565.09;5047163;28;20204;-72
2022/12/31 08:00:11;;;;;;;2.00;0.87;;;;;;;17.18;58.38;97555.31;5048131;28;20183;-72
2022/12/31 08:02:51;;;;;;;1.37;0.90;;;;;;;17.17;58.55;97564.25;5049879;28;20501;-72
2022/12/31 08:05:34;;;;;;;3.10;1.10;;;;;;;17.10;58.38;97576.59;5052804;28;20935;-72
2022/12/31 08:08:30;;;;;;;0.90;0.70;;;;;;;17.20;58.13;97571.84;5046282;28;20445;-72
2022/12/31 08:11:14;;;;;;;3.33;0.90;;;;;;;17.28;57.82;97571.72;5057997;28;20439;-72
2022/12/31 08:13:40;;;;;;;1.50;0.90;;;;;;;17.46;57.57;97573.94;5047339;28;21045;-72
2022/12/31 08:16:09;;;;;;;1.27;1.17;;;;;;;17.49;57.36;97593.97;5047378;28;20425;-72
2022/12/31 08:18:35;;;;;;;1.30;1.00;;;;;;;17.46;57.22;97587.19;5050377;28;20442;-71
2022/12/31 08:21:26;;;;;;;2.03;1.00;;;;;;;17.64;56.85;97599.22;5051389;28;20433;-70
2022/12/31 08:24:28;;;;;;;1.73;1.07;;;;;;;17.64;56.62;97594.72;5048377;28;20182;-72
2022/12/31 08:27:40;;;;;;;3.47;1.00;;;;;;;17.80;56.17;97590.19;5036635;28;20493;-73
2022/12/31 08:30:09;;;;;;;5.53;1.00;;;;;;;18.18;55.33;97589.16;5053717;28;20441;-72
2022/12/31 08:32:41;;;;;;;1.27;0.90;;;;;;;18.33;54.90;97581.94;5069738;28;20425;-73
2022/12/31 08:35:18;;;;;;;2.17;1.27;;;;;;;18.81;53.82;97585.69;5038573;28;20458;-73
2022/12/31 08:38:31;;;;;;;1.30;1.00;;;;;;;19.38;52.66;97597.00;5070773;28;20796;-73
2022/12/31 08:41:08;;;;;;;2.13;0.80;;;;;;;19.09;52.12;97592.81;5045510;28;20443;-73
2022/12/31 08:43:43;;;;;;;1.83;0.93;;;;;;;19.08;52.17;97591.97;5061304;28;20461;-73
2022/12/31 08:46:36;;;;;;;1.00;0.80;;;;;;;18.96;52.36;97594.41;5057672;28;20516;-74
2022/12/31 08:49:01;;;;;;;1.00;0.80;;;;;;;18.83;52.54;97602.25;5052579;28;20479;-74
2022/12/31 08:51:27;;;;;;;5.60;0.90;;;;;;;18.71;52.93;97600.13;5047435;28;20433;-75
2022/12/31 08:53:54;;;;;;;1.60;0.80;;;;;;;18.44;53.33;97611.59;5062553;28;20202;-73
2022/12/31 08:56:35;;;;;;;2.03;0.60;;;;;;;18.37;53.76;97619.50;5054831;28;20183;-75
2022/12/31 08:59:06;;;;;;;1.30;0.80;;;;;;;18.39;53.51;97620.94;5063521;28;20456;-73
2022/12/31 09:01:41;;;;;;;1.43;0.80;;;;;;;18.45;53.45;97618.53;5056247;28;20417;-73
2022/12/31 09:04:23;;;;;;;1.27;0.90;;;;;;;18.36;53.78;97621.31;5048204;28;20421;-73
2022/12/31 09:06:54;;;;;;;0.90;0.77;;;;;;;18.27;53.74;97617.97;5053519;28;20421;-74
2022/12/31 09:09:27;;;;;;;5.10;0.93;;;;;;;18.03;54.42;97631.63;5060466;28;20449;-74
2022/12/31 09:12:10;;;;;;;1.50;0.90;;;;;;;18.24;53.67;97625.50;5045167;28;20480;-75
2022/12/31 09:14:49;;;;;;;2.90;0.90;;;;;;;18.53;53.22;97632.47;5049480;28;20453;-74
2022/12/31 09:17:40;;;;;;;1.10;0.80;;;;;;;18.72;52.88;97638.13;5049208;28;21059;-74
2022/12/31 09:20:11;;;;;;;3.80;0.80;;;;;;;18.94;52.33;97632.75;5064815;28;20475;-74
2022/12/31 09:22:37;;;;;;;1.20;0.73;;;;;;;19.13;51.52;97634.72;5051520;28;20455;-74
2022/12/31 09:25:03;;;;;;;1.30;1.00;;;;;;;19.37;50.65;97632.56;5055846;28;20885;-73
2022/12/31 09:27:41;;;;;;;1.30;0.97;;;;;;;19.72;50.16;97624.50;5044086;28;20548;-73
2022/12/31 09:30:15;;;;;;;1.33;0.90;;;;;;;20.05;49.04;97621.09;5053758;28;20219;-75
2022/12/31 09:32:49;;;;;;;3.50;0.90;;;;;;;20.39;48.04;97624.63;5063401;28;20429;-74
2022/12/31 09:35:24;;;;;;;1.20;0.90;;;;;;;20.83;47.32;97617.03;5058326;28;20568;-74
2022/12/31 09:38:01;;;;;;;4.10;0.87;;;;;;;21.12;46.38;97622.88;5050204;28;20489;-76
2022/12/31 09:40:27;;;;;;;1.10;0.80;;;;;;;21.42;45.66;97618.88;5060551;28;20428;-74
2022/12/31 09:43:34;;;;;;;1.27;0.67;;;;;;;21.39;44.97;97638.75;5044375;28;20797;-74
2022/12/31 09:46:35;;;;;;;1.87;0.70;;;;;;;21.78;43.91;97641.50;5036773;28;20697;-73
2022/12/31 09:49:21;;;;;;;1.20;0.67;;;;;;;22.03;43.18;97632.72;5028558;28;20508;-74
2022/12/31 09:52:01;;;;;;;1.23;0.70;;;;;;;22.10;42.81;97638.81;5048277;28;20917;-73
2022/12/31 09:54:38;;;;;;;2.10;0.70;;;;;;;22.05;43.03;97646.69;5045293;28;20483;-74
2022/12/31 09:57:22;;;;;;;0.90;0.67;;;;;;;22.53;42.66;97635.44;5055114;28;20432;-73
2022/12/31 09:59:56;;;;;;;1.37;1.13;;;;;;;22.69;41.81;97635.91;5055120;28;20896;-73
2022/12/31 10:02:53;;;;;;;1.30;0.80;;;;;;;23.09;41.05;97627.47;5052320;28;20452;-75
2022/12/31 10:05:36;;;;;;;1.77;1.00;;;;;;;22.92;40.37;97623.78;5061237;28;20503;-71
2022/12/31 10:08:21;;;;;;;2.00;1.03;;;;;;;22.89;40.15;97634.91;5052246;28;20457;-72
2022/12/31 10:10:52;;;;;;;1.37;0.80;;;;;;;23.25;39.55;97633.31;5053604;28;20520;-71
2022/12/31 10:13:55;;;;;;;1.10;0.90;;;;;;;23.57;39.37;97622.41;5053664;28;20429;-71
2022/12/31 10:16:45;;;;;;;1.10;0.70;;;;;;;23.21;39.37;97622.25;5063099;28;20432;-72
2022/12/31 10:19:32;;;;;;;7.27;0.80;;;;;;;23.60;39.08;97616.63;5050523;28;20473;-73
2022/12/31 10:22:04;;;;;;;1.10;0.70;;;;;;;23.88;38.43;97616.00;5055545;28;20421;-73
2022/12/31 10:24:55;;;;;;;1.37;0.70;;;;;;;23.86;38.28;97617.28;5057086;28;20428;-73
2022/12/31 10:27:42;;;;;;;1.20;0.70;;;;;;;23.63;38.73;97611.63;5059282;28;20475;-72
2022/12/31 10:30:19;;;;;;;1.40;0.83;;;;;;;23.87;38.16;97618.91;5056081;28;20429;-71
2022/12/31 10:33:15;;;;;;;3.33;0.80;;;;;;;24.10;38.18;97602.16;5059813;28;20429;-71
2022/12/31 10:35:49;;;;;;;1.30;0.80;;;;;;;24.43;37.72;97606.13;5052291;28;20480;-72
2022/12/31 10:38:42;;;;;;;0.87;0.70;;;;;;;24.49;37.02;97613.25;5044174;28;20855;-71
2022/12/31 10:41:25;;;;;;;1.00;0.80;;;;;;;24.35;36.99;97614.53;5057527;28;20470;-71
2022/12/31 10:44:16;;;;;;;1.80;0.90;;;;;;;24.50;37.15;97606.03;5051226;28;20417;-73
2022/12/31 10:46:59;;;;;;;1.33;0.70;;;;;;;24.71;36.64;97599.28;5055208;28;20423;-73
2022/12/31 10:49:52;;;;;;;1.30;0.80;;;;;;;24.87;36.29;97589.72;5060387;28;20448;-73
2022/12/31 10:52:52;;;;;;;2.03;0.80;;;;;;;24.61;36.13;97591.00;5059431;28;20409;-72
2022/12/31 10:55:37;;;;;;;1.10;0.90;;;;;;;24.86;35.87;97588.09;5058085;28;20461;-72
2022/12/31 10:58:30;;;;;;;1.10;0.63;;;;;;;25.02;35.88;97585.72;5052156;28;20814;-73
2022/12/31 11:01:31;;;;;;;0.90;0.70;;;;;;;24.64;35.85;97585.16;5048592;28;20425;-72
2022/12/31 11:04:35;;;;;;;1.97;0.70;;;;;;;25.06;35.44;97579.66;5048928;28;20432;-72
2022/12/31 11:07:00;;;;;;;1.20;0.70;;;;;;;25.35;35.47;97578.88;5046395;28;20927;-71
2022/12/31 11:09:55;;;;;;;5.50;0.93;;;;;;;25.25;34.87;97584.88;5048507;28;20457;-70
2022/12/31 11:12:39;;;;;;;1.40;0.87;;;;;;;24.96;35.01;97569.53;5014583;28;20204;-70
2022/12/31 11:15:19;;;;;;;1.37;0.60;;;;;;;24.89;34.99;97563.50;5054621;28;20477;-70
2022/12/31 11:18:21;;;;;;;1.10;0.70;;;;;;;25.16;35.24;97571.00;5052474;28;20511;-72
2022/12/31 11:21:05;;;;;;;1.03;0.70;;;;;;;24.90;35.15;97562.44;5056073;28;20926;-71
2022/12/31 11:23:53;;;;;;;1.93;0.80;;;;;;;24.85;35.28;97559.66;5056689;28;20431;-71
2022/12/31 11:26:38;;;;;;;0.90;0.50;;;;;;;24.93;35.03;97566.50;5056664;28;20440;-70
2022/12/31 11:29:45;;;;;;;1.77;0.70;;;;;;;24.67;35.22;97568.63;5061527;28;20457;-70
2022/12/31 11:32:10;;;;;;;1.50;0.60;;;;;;;24.67;35.37;97564.09;5055351;28;20439;-71
2022/12/31 11:34:49;;;;;;;1.27;0.90;;;;;;;24.43;35.67;97549.09;5054136;28;20466;-69
2022/12/31 11:37:30;;;;;;;0.80;0.60;;;;;;;24.54;35.57;97564.34;5057386;28;20714;-71
2022/12/31 11:40:17;;;;;;;1.20;0.70;;;;;;;24.06;36.18;97561.66;5055098;28;20430;-70
2022/12/31 11:42:55;;;;;;;2.50;0.70;;;;;;;24.56;35.91;97558.72;5042626;28;21047;-71
2022/12/31 11:45:36;;;;;;;0.90;0.60;;;;;;;24.85;35.03;97556.97;5051355;28;20462;-72
2022/12/31 11:48:38;;;;;;;1.20;0.90;;;;;;;25.19;34.69;97559.81;5053349;28;21097;-70
2022/12/31 11:51:41;;;;;;;1.10;0.83;;;;;;;25.49;34.54;97552.63;5052413;28;20926;-72
2022/12/31 11:54:24;;;;;;;1.53;0.77;;;;;;;25.35;34.19;97554.72;5054999;28;20925;-72
2022/12/31 11:56:59;;;;;;;1.00;0.70;;;;;;;25.25;34.59;97550.81;5056662;28;20529;-71
2022/12/31 11:59:25;;;;;;;0.90;0.60;;;;;;;25.27;34.26;97558.59;5046496;28;20456;-71
2022/12/31 12:01:55;;;;;;;1.00;0.77;;;;;;;25.43;34.30;97546.34;5056305;28;20852;-73
2022/12/31 12:04:20;;;;;;;2.87;0.70;;;;;;;25.34;33.98;97537.81;5056111;28;20844;-73
2022/12/31 12:06:45;;;;;;;1.87;0.93;;;;;;;25.43;34.11;97551.72;5065513;28;20424;-73
2022/12/31 12:09:19;;;;;;;1.10;0.80;;;;;;;25.41;34.23;97537.72;5054108;28;20295;-73
2022/12/31 12:11:45;;;;;;;1.40;0.70;;;;;;;25.34;34.66;97534.31;5065519;28;20220;-73